sensor_id;sensor_type;location;lat;lon;timestamp;temperature;humidity
3736;DHT22;1883;48.202;16.310;2023-07-30T00:01:46;23.10;72.00
3736;DHT22;1883;48.202;16.310;2023-07-30T00:04:13;23.20;71.90
3736;DHT22;1883;48.202;16.310;2023-07-30T00:06:40;23.10;71.90
3736;DHT22;1883;48.202;16.310;2023-07-30T00:09:10;23.10;71.90
3736;DHT22;1883;48.202;16.310;2023-07-30T00:11:38;23.20;71.90
3736;DHT22;1883;48.202;16.310;2023-07-30T00:14:07;23.20;71.90
3736;DHT22;1883;48.202;16.310;2023-07-30T00:16:34;23.10;71.80
3736;DHT22;1883;48.202;16.310;2023-07-30T00:19:01;23.10;71.90
3736;DHT22;1883;48.202;16.310;2023-07-30T00:21:31;23.10;71.80
3736;DHT22;1883;48.202;16.310;2023-07-30T00:23:58;23.00;71.80
3736;DHT22;1883;48.202;16.310;2023-07-30T00:26:26;23.00;71.80
3736;DHT22;1883;48.202;16.310;2023-07-30T00:28:54;23.10;71.80
3736;DHT22;1883;48.202;16.310;2023-07-30T00:31:27;23.00;71.80
3736;DHT22;1883;48.202;16.310;2023-07-30T00:33:54;23.00;71.70
3736;DHT22;1883;48.202;16.310;2023-07-30T00:36:22;23.00;71.70
3736;DHT22;1883;48.202;16.310;2023-07-30T00:38:49;23.00;71.70
3736;DHT22;1883;48.202;16.310;2023-07-30T00:41:16;23.00;71.70
3736;DHT22;1883;48.202;16.310;2023-07-30T00:43:43;22.90;71.60
3736;DHT22;1883;48.202;16.310;2023-07-30T00:46:11;22.90;71.60
3736;DHT22;1883;48.202;16.310;2023-07-30T00:48:39;22.90;71.60
3736;DHT22;1883;48.202;16.310;2023-07-30T00:51:07;22.90;71.60
3736;DHT22;1883;48.202;16.310;2023-07-30T00:53:36;22.90;71.60
3736;DHT22;1883;48.202;16.310;2023-07-30T00:56:03;22.90;71.50
3736;DHT22;1883;48.202;16.310;2023-07-30T00:58:31;22.80;71.50
3736;DHT22;1883;48.202;16.310;2023-07-30T01:00:59;23.00;71.60
3736;DHT22;1883;48.202;16.310;2023-07-30T01:03:26;22.90;71.50
3736;DHT22;1883;48.202;16.310;2023-07-30T01:05:56;22.80;71.50
3736;DHT22;1883;48.202;16.310;2023-07-30T01:08:23;22.90;71.50
3736;DHT22;1883;48.202;16.310;2023-07-30T01:10:50;22.80;71.50
3736;DHT22;1883;48.202;16.310;2023-07-30T01:13:18;22.70;71.40
3736;DHT22;1883;48.202;16.310;2023-07-30T01:15:45;22.70;71.30
3736;DHT22;1883;48.202;16.310;2023-07-30T01:18:14;22.60;71.30
3736;DHT22;1883;48.202;16.310;2023-07-30T01:20:41;22.70;71.30
3736;DHT22;1883;48.202;16.310;2023-07-30T01:23:09;22.60;71.40
3736;DHT22;1883;48.202;16.310;2023-07-30T01:25:37;22.60;71.40
3736;DHT22;1883;48.202;16.310;2023-07-30T01:28:05;22.70;71.40
3736;DHT22;1883;48.202;16.310;2023-07-30T01:30:37;22.50;71.40
3736;DHT22;1883;48.202;16.310;2023-07-30T01:33:05;22.60;71.40
3736;DHT22;1883;48.202;16.310;2023-07-30T01:35:35;22.60;71.30
3736;DHT22;1883;48.202;16.310;2023-07-30T01:38:04;22.50;71.30
3736;DHT22;1883;48.202;16.310;2023-07-30T01:40:34;22.50;71.20
3736;DHT22;1883;48.202;16.310;2023-07-30T01:43:01;22.50;71.20
3736;DHT22;1883;48.202;16.310;2023-07-30T01:45:28;22.50;71.20
3736;DHT22;1883;48.202;16.310;2023-07-30T01:47:55;22.60;71.00
3736;DHT22;1883;48.202;16.310;2023-07-30T01:50:22;22.50;71.20
3736;DHT22;1883;48.202;16.310;2023-07-30T01:52:49;22.50;71.20
3736;DHT22;1883;48.202;16.310;2023-07-30T01:55:16;22.60;71.30
3736;DHT22;1883;48.202;16.310;2023-07-30T01:57:44;22.50;71.20
3736;DHT22;1883;48.202;16.310;2023-07-30T02:00:12;22.50;71.20
3736;DHT22;1883;48.202;16.310;2023-07-30T02:02:39;22.60;71.20
3736;DHT22;1883;48.202;16.310;2023-07-30T02:05:06;22.50;71.20
3736;DHT22;1883;48.202;16.310;2023-07-30T02:07:33;22.50;71.20
3736;DHT22;1883;48.202;16.310;2023-07-30T02:10:00;22.50;71.20
3736;DHT22;1883;48.202;16.310;2023-07-30T02:12:27;22.40;71.20
3736;DHT22;1883;48.202;16.310;2023-07-30T02:14:59;22.40;71.10
3736;DHT22;1883;48.202;16.310;2023-07-30T02:17:26;22.40;71.20
3736;DHT22;1883;48.202;16.310;2023-07-30T02:19:53;22.40;71.20
3736;DHT22;1883;48.202;16.310;2023-07-30T02:22:19;22.30;71.20
3736;DHT22;1883;48.202;16.310;2023-07-30T02:24:46;22.40;71.20
3736;DHT22;1883;48.202;16.310;2023-07-30T02:27:13;22.50;71.20
3736;DHT22;1883;48.202;16.310;2023-07-30T02:29:41;22.40;71.20
3736;DHT22;1883;48.202;16.310;2023-07-30T02:32:09;22.40;71.20
3736;DHT22;1883;48.202;16.310;2023-07-30T02:34:38;22.40;71.20
3736;DHT22;1883;48.202;16.310;2023-07-30T02:37:09;22.50;71.20
3736;DHT22;1883;48.202;16.310;2023-07-30T02:39:36;22.40;70.90
3736;DHT22;1883;48.202;16.310;2023-07-30T02:42:03;22.30;71.10
3736;DHT22;1883;48.202;16.310;2023-07-30T02:44:30;22.30;71.00
3736;DHT22;1883;48.202;16.310;2023-07-30T02:46:57;22.30;71.00
3736;DHT22;1883;48.202;16.310;2023-07-30T02:49:26;22.30;71.00
3736;DHT22;1883;48.202;16.310;2023-07-30T02:51:53;22.30;71.10
3736;DHT22;1883;48.202;16.310;2023-07-30T02:54:20;22.30;71.00
3736;DHT22;1883;48.202;16.310;2023-07-30T02:56:48;22.20;71.00
3736;DHT22;1883;48.202;16.310;2023-07-30T02:59:15;22.30;71.00
3736;DHT22;1883;48.202;16.310;2023-07-30T03:01:42;22.30;71.00
3736;DHT22;1883;48.202;16.310;2023-07-30T03:04:10;22.20;70.80
3736;DHT22;1883;48.202;16.310;2023-07-30T03:06:38;22.30;71.00
3736;DHT22;1883;48.202;16.310;2023-07-30T03:09:05;22.30;71.00
3736;DHT22;1883;48.202;16.310;2023-07-30T03:11:33;22.20;71.00
3736;DHT22;1883;48.202;16.310;2023-07-30T03:14:00;22.20;70.90
3736;DHT22;1883;48.202;16.310;2023-07-30T03:16:27;22.30;71.00
3736;DHT22;1883;48.202;16.310;2023-07-30T03:18:54;22.30;71.00
3736;DHT22;1883;48.202;16.310;2023-07-30T03:21:21;22.20;71.00
3736;DHT22;1883;48.202;16.310;2023-07-30T03:23:50;22.20;71.00
3736;DHT22;1883;48.202;16.310;2023-07-30T03:26:17;22.40;71.00
3736;DHT22;1883;48.202;16.310;2023-07-30T03:28:45;22.30;71.00
3736;DHT22;1883;48.202;16.310;2023-07-30T03:31:12;22.20;71.00
3736;DHT22;1883;48.202;16.310;2023-07-30T03:33:40;22.20;70.90
3736;DHT22;1883;48.202;16.310;2023-07-30T03:36:09;22.30;70.90
3736;DHT22;1883;48.202;16.310;2023-07-30T03:38:36;22.20;70.90
3736;DHT22;1883;48.202;16.310;2023-07-30T03:41:06;22.30;70.90
3736;DHT22;1883;48.202;16.310;2023-07-30T03:43:33;22.20;70.90
3736;DHT22;1883;48.202;16.310;2023-07-30T03:46:01;22.20;70.90
3736;DHT22;1883;48.202;16.310;2023-07-30T03:48:28;22.30;70.90
3736;DHT22;1883;48.202;16.310;2023-07-30T03:50:55;22.30;70.90
3736;DHT22;1883;48.202;16.310;2023-07-30T03:53:23;22.20;70.90
3736;DHT22;1883;48.202;16.310;2023-07-30T03:55:50;22.20;70.90
3736;DHT22;1883;48.202;16.310;2023-07-30T03:58:18;22.20;70.90
3736;DHT22;1883;48.202;16.310;2023-07-30T04:00:45;22.30;70.90
3736;DHT22;1883;48.202;16.310;2023-07-30T04:03:13;22.20;70.80
3736;DHT22;1883;48.202;16.310;2023-07-30T04:05:40;22.20;70.80
3736;DHT22;1883;48.202;16.310;2023-07-30T04:08:07;22.20;70.80
3736;DHT22;1883;48.202;16.310;2023-07-30T04:10:39;22.20;70.80
3736;DHT22;1883;48.202;16.310;2023-07-30T04:13:06;22.10;70.80
3736;DHT22;1883;48.202;16.310;2023-07-30T04:15:36;22.20;70.80
3736;DHT22;1883;48.202;16.310;2023-07-30T04:18:04;22.20;70.80
3736;DHT22;1883;48.202;16.310;2023-07-30T04:20:31;22.30;70.90
3736;DHT22;1883;48.202;16.310;2023-07-30T04:22:58;22.20;70.80
3736;DHT22;1883;48.202;16.310;2023-07-30T04:25:26;22.20;70.80
3736;DHT22;1883;48.202;16.310;2023-07-30T04:27:53;22.30;70.80
3736;DHT22;1883;48.202;16.310;2023-07-30T04:30:21;22.30;70.80
3736;DHT22;1883;48.202;16.310;2023-07-30T04:32:49;22.30;70.80
3736;DHT22;1883;48.202;16.310;2023-07-30T04:35:17;22.30;70.80
3736;DHT22;1883;48.202;16.310;2023-07-30T04:37:44;22.20;70.80
3736;DHT22;1883;48.202;16.310;2023-07-30T04:40:13;22.30;70.80
3736;DHT22;1883;48.202;16.310;2023-07-30T04:42:42;22.30;70.80
3736;DHT22;1883;48.202;16.310;2023-07-30T04:45:12;22.30;70.80
3736;DHT22;1883;48.202;16.310;2023-07-30T04:47:40;22.30;70.80
3736;DHT22;1883;48.202;16.310;2023-07-30T04:50:09;22.30;70.80
3736;DHT22;1883;48.202;16.310;2023-07-30T04:52:36;22.40;70.80
3736;DHT22;1883;48.202;16.310;2023-07-30T04:55:04;22.30;70.80
3736;DHT22;1883;48.202;16.310;2023-07-30T04:57:32;22.30;70.80
3736;DHT22;1883;48.202;16.310;2023-07-30T04:59:59;22.30;70.70
3736;DHT22;1883;48.202;16.310;2023-07-30T05:02:27;22.30;70.70
3736;DHT22;1883;48.202;16.310;2023-07-30T05:04:55;22.40;70.70
3736;DHT22;1883;48.202;16.310;2023-07-30T05:07:23;22.30;70.70
3736;DHT22;1883;48.202;16.310;2023-07-30T05:09:50;22.30;70.70
3736;DHT22;1883;48.202;16.310;2023-07-30T05:12:20;22.40;70.70
3736;DHT22;1883;48.202;16.310;2023-07-30T05:14:47;22.40;70.70
3736;DHT22;1883;48.202;16.310;2023-07-30T05:17:15;22.30;70.60
3736;DHT22;1883;48.202;16.310;2023-07-30T05:19:42;22.30;70.60
3736;DHT22;1883;48.202;16.310;2023-07-30T05:22:11;22.40;70.70
3736;DHT22;1883;48.202;16.310;2023-07-30T05:24:40;22.40;70.70
3736;DHT22;1883;48.202;16.310;2023-07-30T05:27:07;22.30;70.60
3736;DHT22;1883;48.202;16.310;2023-07-30T05:29:34;22.40;70.70
3736;DHT22;1883;48.202;16.310;2023-07-30T05:32:02;22.40;70.50
3736;DHT22;1883;48.202;16.310;2023-07-30T05:34:29;22.40;70.30
3736;DHT22;1883;48.202;16.310;2023-07-30T05:36:56;22.10;70.00
3736;DHT22;1883;48.202;16.310;2023-07-30T05:39:24;22.00;69.70
3736;DHT22;1883;48.202;16.310;2023-07-30T05:41:53;21.90;69.60
3736;DHT22;1883;48.202;16.310;2023-07-30T05:44:20;21.80;69.40
3736;DHT22;1883;48.202;16.310;2023-07-30T05:46:47;21.70;69.30
3736;DHT22;1883;48.202;16.310;2023-07-30T05:49:15;21.70;69.40
3736;DHT22;1883;48.202;16.310;2023-07-30T05:51:42;21.70;69.30
3736;DHT22;1883;48.202;16.310;2023-07-30T05:54:09;21.70;69.50
3736;DHT22;1883;48.202;16.310;2023-07-30T05:56:36;21.80;69.60
3736;DHT22;1883;48.202;16.310;2023-07-30T05:59:08;21.90;69.70
3736;DHT22;1883;48.202;16.310;2023-07-30T06:01:37;21.90;69.80
3736;DHT22;1883;48.202;16.310;2023-07-30T06:04:12;22.10;69.90
3736;DHT22;1883;48.202;16.310;2023-07-30T06:06:40;22.10;70.00
3736;DHT22;1883;48.202;16.310;2023-07-30T06:09:08;22.10;70.00
3736;DHT22;1883;48.202;16.310;2023-07-30T06:11:49;22.20;70.20
3736;DHT22;1883;48.202;16.310;2023-07-30T06:14:25;22.30;70.30
3736;DHT22;1883;48.202;16.310;2023-07-30T06:17:08;22.40;70.50
3736;DHT22;1883;48.202;16.310;2023-07-30T06:19:36;22.50;70.50
3736;DHT22;1883;48.202;16.310;2023-07-30T06:22:05;22.50;70.60
3736;DHT22;1883;48.202;16.310;2023-07-30T06:24:33;22.40;70.50
3736;DHT22;1883;48.202;16.310;2023-07-30T06:27:00;22.40;70.60
3736;DHT22;1883;48.202;16.310;2023-07-30T06:29:30;22.50;70.60
3736;DHT22;1883;48.202;16.310;2023-07-30T06:31:59;22.30;70.50
3736;DHT22;1883;48.202;16.310;2023-07-30T06:35:05;22.40;70.50
3736;DHT22;1883;48.202;16.310;2023-07-30T06:37:50;22.40;70.40
3736;DHT22;1883;48.202;16.310;2023-07-30T06:40:18;22.30;70.40
3736;DHT22;1883;48.202;16.310;2023-07-30T06:42:53;22.30;70.30
3736;DHT22;1883;48.202;16.310;2023-07-30T06:45:25;22.20;70.20
3736;DHT22;1883;48.202;16.310;2023-07-30T06:47:56;22.10;70.10
3736;DHT22;1883;48.202;16.310;2023-07-30T06:50:24;22.10;70.00
3736;DHT22;1883;48.202;16.310;2023-07-30T06:52:52;22.10;70.00
3736;DHT22;1883;48.202;16.310;2023-07-30T06:55:24;22.10;70.00
3736;DHT22;1883;48.202;16.310;2023-07-30T06:58:05;22.00;69.90
3736;DHT22;1883;48.202;16.310;2023-07-30T07:00:53;22.00;69.80
3736;DHT22;1883;48.202;16.310;2023-07-30T07:03:36;21.70;69.50
3736;DHT22;1883;48.202;16.310;2023-07-30T07:06:06;21.80;69.50
3736;DHT22;1883;48.202;16.310;2023-07-30T07:08:48;21.60;69.40
3736;DHT22;1883;48.202;16.310;2023-07-30T07:11:30;21.60;69.20
3736;DHT22;1883;48.202;16.310;2023-07-30T07:14:05;21.50;69.10
3736;DHT22;1883;48.202;16.310;2023-07-30T07:16:43;21.40;68.80
3736;DHT22;1883;48.202;16.310;2023-07-30T07:19:16;21.30;68.10
3736;DHT22;1883;48.202;16.310;2023-07-30T07:22:13;21.00;67.80
3736;DHT22;1883;48.202;16.310;2023-07-30T07:25:38;20.80;67.10
3736;DHT22;1883;48.202;16.310;2023-07-30T08:13:49;21.00;64.80
3736;DHT22;1883;48.202;16.310;2023-07-30T08:16:32;21.20;64.50
3736;DHT22;1883;48.202;16.310;2023-07-30T08:42:17;22.40;66.70
3736;DHT22;1883;48.202;16.310;2023-07-30T08:45:00;22.40;66.80
3736;DHT22;1883;48.202;16.310;2023-07-30T08:47:31;22.40;66.90
3736;DHT22;1883;48.202;16.310;2023-07-30T08:50:15;22.50;67.00
3736;DHT22;1883;48.202;16.310;2023-07-30T08:52:43;22.40;67.20
3736;DHT22;1883;48.202;16.310;2023-07-30T08:55:35;22.60;67.20
3736;DHT22;1883;48.202;16.310;2023-07-30T09:25:17;23.70;70.00
3736;DHT22;1883;48.202;16.310;2023-07-30T09:28:10;24.10;70.30
3736;DHT22;1883;48.202;16.310;2023-07-30T09:31:04;24.20;70.70
3736;DHT22;1883;48.202;16.310;2023-07-30T09:33:50;24.10;70.70
3736;DHT22;1883;48.202;16.310;2023-07-30T09:36:19;24.50;71.00
3736;DHT22;1883;48.202;16.310;2023-07-30T09:39:14;24.40;71.00
3736;DHT22;1883;48.202;16.310;2023-07-30T10:24:17;24.40;72.00
3736;DHT22;1883;48.202;16.310;2023-07-30T10:29:46;25.10;99.90
3736;DHT22;1883;48.202;16.310;2023-07-30T10:32:40;25.50;99.90
3736;DHT22;1883;48.202;16.310;2023-07-30T10:35:38;25.70;99.90
3736;DHT22;1883;48.202;16.310;2023-07-30T10:38:16;26.00;99.90
3736;DHT22;1883;48.202;16.310;2023-07-30T10:47:07;25.20;99.90
3736;DHT22;1883;48.202;16.310;2023-07-30T11:21:18;23.20;61.70
3736;DHT22;1883;48.202;16.310;2023-07-30T11:23:46;23.60;64.00
3736;DHT22;1883;48.202;16.310;2023-07-30T11:26:16;24.10;65.40
3736;DHT22;1883;48.202;16.310;2023-07-30T11:28:44;24.50;66.50
3736;DHT22;1883;48.202;16.310;2023-07-30T11:31:20;24.90;67.50
3736;DHT22;1883;48.202;16.310;2023-07-30T11:33:52;25.20;99.90
3736;DHT22;1883;48.202;16.310;2023-07-30T11:36:36;25.10;99.90
3736;DHT22;1883;48.202;16.310;2023-07-30T11:39:04;25.40;99.90
3736;DHT22;1883;48.202;16.310;2023-07-30T11:41:33;25.70;99.90
3736;DHT22;1883;48.202;16.310;2023-07-30T11:44:02;25.60;99.90
3736;DHT22;1883;48.202;16.310;2023-07-30T11:46:31;25.60;99.90
3736;DHT22;1883;48.202;16.310;2023-07-30T11:49:12;25.90;99.90
3736;DHT22;1883;48.202;16.310;2023-07-30T11:55:01;26.50;99.90
3736;DHT22;1883;48.202;16.310;2023-07-30T11:57:33;26.60;99.90
3736;DHT22;1883;48.202;16.310;2023-07-30T12:00:10;26.70;99.90
3736;DHT22;1883;48.202;16.310;2023-07-30T12:02:41;26.60;99.90
3736;DHT22;1883;48.202;16.310;2023-07-30T13:14:24;29.20;99.90
3736;DHT22;1883;48.202;16.310;2023-07-30T13:17:06;30.00;99.90
3736;DHT22;1883;48.202;16.310;2023-07-30T13:19:54;30.50;99.90
3736;DHT22;1883;48.202;16.310;2023-07-30T13:22:36;30.80;99.90
3736;DHT22;1883;48.202;16.310;2023-07-30T13:25:46;29.80;99.90
3736;DHT22;1883;48.202;16.310;2023-07-30T13:28:15;29.50;99.90
3736;DHT22;1883;48.202;16.310;2023-07-30T13:37:15;30.10;99.90
3736;DHT22;1883;48.202;16.310;2023-07-30T13:39:48;30.60;99.90
3736;DHT22;1883;48.202;16.310;2023-07-30T13:42:37;30.60;99.90
3736;DHT22;1883;48.202;16.310;2023-07-30T13:45:43;30.20;99.90
3736;DHT22;1883;48.202;16.310;2023-07-30T13:48:25;29.70;99.90
3736;DHT22;1883;48.202;16.310;2023-07-30T13:51:08;29.80;99.90
3736;DHT22;1883;48.202;16.310;2023-07-30T14:13:25;27.40;99.90
3736;DHT22;1883;48.202;16.310;2023-07-30T14:16:18;27.00;99.90
3736;DHT22;1883;48.202;16.310;2023-07-30T14:27:49;26.30;99.90
3736;DHT22;1883;48.202;16.310;2023-07-30T14:59:14;21.90;67.20
3736;DHT22;1883;48.202;16.310;2023-07-30T15:01:49;21.70;65.80
3736;DHT22;1883;48.202;16.310;2023-07-30T15:04:22;21.60;65.00
3736;DHT22;1883;48.202;16.310;2023-07-30T15:06:54;21.80;62.30
3736;DHT22;1883;48.202;16.310;2023-07-30T15:09:26;21.80;62.40
3736;DHT22;1883;48.202;16.310;2023-07-30T15:11:54;21.70;63.10
3736;DHT22;1883;48.202;16.310;2023-07-30T15:14:31;21.80;62.80
3736;DHT22;1883;48.202;16.310;2023-07-30T15:17:01;21.80;62.70
3736;DHT22;1883;48.202;16.310;2023-07-30T15:19:50;21.60;62.50
3736;DHT22;1883;48.202;16.310;2023-07-30T15:22:21;21.70;62.40
3736;DHT22;1883;48.202;16.310;2023-07-30T15:24:49;21.70;62.50
3736;DHT22;1883;48.202;16.310;2023-07-30T15:27:28;21.90;62.70
3736;DHT22;1883;48.202;16.310;2023-07-30T15:30:44;21.90;60.70
3736;DHT22;1883;48.202;16.310;2023-07-30T15:33:33;21.60;58.10
3736;DHT22;1883;48.202;16.310;2023-07-30T15:47:16;20.40;51.90
3736;DHT22;1883;48.202;16.310;2023-07-30T23:24:19;19.30;64.90
3736;DHT22;1883;48.202;16.310;2023-07-30T23:27:03;19.30;64.90
3736;DHT22;1883;48.202;16.310;2023-07-30T23:30:06;19.30;65.20
3736;DHT22;1883;48.202;16.310;2023-07-30T23:32:52;19.20;65.40
3736;DHT22;1883;48.202;16.310;2023-07-30T23:35:41;19.20;65.60
3736;DHT22;1883;48.202;16.310;2023-07-30T23:38:27;19.30;65.70
